sensor_id;sensor_type;location;lat;lon;timestamp;P1;durP1;ratioP1;P2;durP2;ratioP2
11139;SDS011;5624;49.388;11.350;2022-08-30T00:00:29;4.72;;;3.10;;
11139;SDS011;5624;49.388;11.350;2022-08-30T00:03:13;6.85;;;3.97;;
11139;SDS011;5624;49.388;11.350;2022-08-30T00:05:39;7.70;;;3.63;;
11139;SDS011;5624;49.388;11.350;2022-08-30T00:08:06;5.63;;;3.20;;
11139;SDS011;5624;49.388;11.350;2022-08-30T00:10:32;6.45;;;3.50;;
11139;SDS011;5624;49.388;11.350;2022-08-30T00:12:58;6.28;;;3.10;;
11139;SDS011;5624;49.388;11.350;2022-08-30T00:15:24;8.20;;;3.75;;
11139;SDS011;5624;49.388;11.350;2022-08-30T00:17:50;7.43;;;3.78;;
11139;SDS011;5624;49.388;11.350;2022-08-30T00:20:18;4.78;;;3.50;;
11139;SDS011;5624;49.388;11.350;2022-08-30T00:22:46;8.18;;;3.17;;
11139;SDS011;5624;49.388;11.350;2022-08-30T00:25:13;5.63;;;3.50;;
11139;SDS011;5624;49.388;11.350;2022-08-30T00:27:39;8.57;;;4.15;;
11139;SDS011;5624;49.388;11.350;2022-08-30T00:30:07;7.07;;;4.22;;
11139;SDS011;5624;49.388;11.350;2022-08-30T00:32:34;6.97;;;3.67;;
11139;SDS011;5624;49.388;11.350;2022-08-30T00:35:00;6.32;;;3.88;;
11139;SDS011;5624;49.388;11.350;2022-08-30T00:37:25;6.57;;;3.35;;
11139;SDS011;5624;49.388;11.350;2022-08-30T00:39:51;5.97;;;3.30;;
11139;SDS011;5624;49.388;11.350;2022-08-30T00:42:17;5.78;;;3.42;;
11139;SDS011;5624;49.388;11.350;2022-08-30T00:44:43;5.68;;;3.65;;
11139;SDS011;5624;49.388;11.350;2022-08-30T00:47:09;6.27;;;3.40;;
11139;SDS011;5624;49.388;11.350;2022-08-30T00:49:36;5.93;;;3.97;;
11139;SDS011;5624;49.388;11.350;2022-08-30T00:52:06;6.10;;;3.67;;
11139;SDS011;5624;49.388;11.350;2022-08-30T00:54:32;6.32;;;3.60;;
11139;SDS011;5624;49.388;11.350;2022-08-30T00:57:00;6.00;;;3.73;;
11139;SDS011;5624;49.388;11.350;2022-08-30T00:59:27;6.72;;;3.80;;
11139;SDS011;5624;49.388;11.350;2022-08-30T01:01:53;6.72;;;3.65;;
11139;SDS011;5624;49.388;11.350;2022-08-30T01:04:20;6.07;;;3.50;;
11139;SDS011;5624;49.388;11.350;2022-08-30T01:06:49;5.65;;;3.75;;
11139;SDS011;5624;49.388;11.350;2022-08-30T01:09:15;10.17;;;4.23;;
11139;SDS011;5624;49.388;11.350;2022-08-30T01:11:41;8.57;;;3.73;;
11139;SDS011;5624;49.388;11.350;2022-08-30T01:14:09;6.33;;;4.10;;
11139;SDS011;5624;49.388;11.350;2022-08-30T01:16:36;5.83;;;3.80;;
11139;SDS011;5624;49.388;11.350;2022-08-30T01:19:03;8.05;;;4.25;;
11139;SDS011;5624;49.388;11.350;2022-08-30T01:21:37;11.02;;;3.83;;
11139;SDS011;5624;49.388;11.350;2022-08-30T01:24:03;5.23;;;4.07;;
11139;SDS011;5624;49.388;11.350;2022-08-30T01:26:31;5.60;;;4.10;;
11139;SDS011;5624;49.388;11.350;2022-08-30T01:29:01;7.57;;;3.80;;
11139;SDS011;5624;49.388;11.350;2022-08-30T01:31:30;8.17;;;4.40;;
11139;SDS011;5624;49.388;11.350;2022-08-30T01:33:59;6.40;;;3.90;;
11139;SDS011;5624;49.388;11.350;2022-08-30T01:36:25;5.85;;;4.00;;
11139;SDS011;5624;49.388;11.350;2022-08-30T01:38:52;8.10;;;4.40;;
11139;SDS011;5624;49.388;11.350;2022-08-30T01:41:21;8.05;;;4.07;;
11139;SDS011;5624;49.388;11.350;2022-08-30T01:43:47;8.30;;;5.27;;
11139;SDS011;5624;49.388;11.350;2022-08-30T01:46:14;7.57;;;4.10;;
11139;SDS011;5624;49.388;11.350;2022-08-30T01:48:42;6.27;;;4.30;;
11139;SDS011;5624;49.388;11.350;2022-08-30T01:51:11;6.17;;;4.20;;
11139;SDS011;5624;49.388;11.350;2022-08-30T01:53:38;8.67;;;4.37;;
11139;SDS011;5624;49.388;11.350;2022-08-30T01:56:06;10.10;;;4.30;;
11139;SDS011;5624;49.388;11.350;2022-08-30T01:58:35;7.17;;;4.07;;
11139;SDS011;5624;49.388;11.350;2022-08-30T02:01:04;7.70;;;4.03;;
11139;SDS011;5624;49.388;11.350;2022-08-30T02:03:33;6.50;;;4.43;;
11139;SDS011;5624;49.388;11.350;2022-08-30T02:06:03;7.90;;;4.63;;
11139;SDS011;5624;49.388;11.350;2022-08-30T02:08:31;8.33;;;3.87;;
11139;SDS011;5624;49.388;11.350;2022-08-30T02:10:57;7.37;;;4.30;;
11139;SDS011;5624;49.388;11.350;2022-08-30T02:13:23;7.87;;;4.20;;
11139;SDS011;5624;49.388;11.350;2022-08-30T02:15:50;10.07;;;4.73;;
11139;SDS011;5624;49.388;11.350;2022-08-30T02:18:15;7.40;;;4.50;;
11139;SDS011;5624;49.388;11.350;2022-08-30T02:20:41;8.73;;;4.23;;
11139;SDS011;5624;49.388;11.350;2022-08-30T02:23:07;6.80;;;4.23;;
11139;SDS011;5624;49.388;11.350;2022-08-30T02:25:32;8.77;;;6.15;;
11139;SDS011;5624;49.388;11.350;2022-08-30T02:27:58;7.60;;;4.60;;
11139;SDS011;5624;49.388;11.350;2022-08-30T02:30:24;8.07;;;4.63;;
11139;SDS011;5624;49.388;11.350;2022-08-30T02:32:49;9.83;;;4.93;;
11139;SDS011;5624;49.388;11.350;2022-08-30T02:35:15;9.83;;;4.60;;
11139;SDS011;5624;49.388;11.350;2022-08-30T02:37:40;8.30;;;4.70;;
11139;SDS011;5624;49.388;11.350;2022-08-30T02:40:06;8.77;;;4.30;;
11139;SDS011;5624;49.388;11.350;2022-08-30T02:42:33;6.33;;;4.30;;
11139;SDS011;5624;49.388;11.350;2022-08-30T02:44:59;6.67;;;4.60;;
11139;SDS011;5624;49.388;11.350;2022-08-30T02:47:25;6.17;;;5.13;;
11139;SDS011;5624;49.388;11.350;2022-08-30T02:49:50;6.73;;;4.00;;
11139;SDS011;5624;49.388;11.350;2022-08-30T02:52:16;6.03;;;4.17;;
11139;SDS011;5624;49.388;11.350;2022-08-30T02:54:43;10.73;;;4.53;;
11139;SDS011;5624;49.388;11.350;2022-08-30T02:57:09;8.85;;;4.72;;
11139;SDS011;5624;49.388;11.350;2022-08-30T02:59:36;11.53;;;4.43;;
11139;SDS011;5624;49.388;11.350;2022-08-30T03:02:05;6.47;;;4.72;;
11139;SDS011;5624;49.388;11.350;2022-08-30T03:04:31;7.70;;;4.83;;
11139;SDS011;5624;49.388;11.350;2022-08-30T03:06:57;7.63;;;4.77;;
11139;SDS011;5624;49.388;11.350;2022-08-30T03:09:23;6.60;;;4.67;;
11139;SDS011;5624;49.388;11.350;2022-08-30T03:11:48;8.98;;;4.65;;
11139;SDS011;5624;49.388;11.350;2022-08-30T03:14:14;6.22;;;4.35;;
11139;SDS011;5624;49.388;11.350;2022-08-30T03:16:40;7.30;;;4.40;;
11139;SDS011;5624;49.388;11.350;2022-08-30T03:19:05;8.35;;;4.75;;
11139;SDS011;5624;49.388;11.350;2022-08-30T03:21:31;8.60;;;5.07;;
11139;SDS011;5624;49.388;11.350;2022-08-30T03:23:56;9.50;;;4.80;;
11139;SDS011;5624;49.388;11.350;2022-08-30T03:26:22;7.70;;;4.33;;
11139;SDS011;5624;49.388;11.350;2022-08-30T03:28:48;7.37;;;4.40;;
11139;SDS011;5624;49.388;11.350;2022-08-30T03:31:13;7.90;;;5.13;;
11139;SDS011;5624;49.388;11.350;2022-08-30T03:33:39;9.80;;;5.03;;
11139;SDS011;5624;49.388;11.350;2022-08-30T03:36:05;8.25;;;5.38;;
11139;SDS011;5624;49.388;11.350;2022-08-30T03:38:31;8.57;;;5.40;;
11139;SDS011;5624;49.388;11.350;2022-08-30T03:40:57;8.63;;;4.75;;
11139;SDS011;5624;49.388;11.350;2022-08-30T03:43:23;9.70;;;4.80;;
11139;SDS011;5624;49.388;11.350;2022-08-30T03:45:49;7.80;;;4.90;;
11139;SDS011;5624;49.388;11.350;2022-08-30T03:48:14;9.35;;;5.65;;
11139;SDS011;5624;49.388;11.350;2022-08-30T03:50:40;9.03;;;4.50;;
11139;SDS011;5624;49.388;11.350;2022-08-30T03:53:06;7.50;;;4.67;;
11139;SDS011;5624;49.388;11.350;2022-08-30T03:55:31;6.80;;;4.93;;
11139;SDS011;5624;49.388;11.350;2022-08-30T03:57:57;7.13;;;4.82;;
11139;SDS011;5624;49.388;11.350;2022-08-30T04:00:23;7.90;;;5.23;;
11139;SDS011;5624;49.388;11.350;2022-08-30T04:02:49;7.07;;;4.83;;
11139;SDS011;5624;49.388;11.350;2022-08-30T04:05:15;8.00;;;5.13;;
11139;SDS011;5624;49.388;11.350;2022-08-30T04:07:41;8.73;;;4.87;;
11139;SDS011;5624;49.388;11.350;2022-08-30T04:10:07;9.97;;;5.40;;
11139;SDS011;5624;49.388;11.350;2022-08-30T04:12:33;8.17;;;5.17;;
11139;SDS011;5624;49.388;11.350;2022-08-30T04:15:00;7.80;;;5.13;;
11139;SDS011;5624;49.388;11.350;2022-08-30T04:17:25;7.67;;;4.90;;
11139;SDS011;5624;49.388;11.350;2022-08-30T04:19:51;9.73;;;5.20;;
11139;SDS011;5624;49.388;11.350;2022-08-30T04:22:17;7.30;;;5.10;;
11139;SDS011;5624;49.388;11.350;2022-08-30T04:24:43;7.67;;;4.57;;
11139;SDS011;5624;49.388;11.350;2022-08-30T04:27:09;6.97;;;5.00;;
11139;SDS011;5624;49.388;11.350;2022-08-30T04:29:35;7.47;;;4.90;;
11139;SDS011;5624;49.388;11.350;2022-08-30T04:32:01;9.40;;;5.10;;
11139;SDS011;5624;49.388;11.350;2022-08-30T04:34:27;7.37;;;4.93;;
11139;SDS011;5624;49.388;11.350;2022-08-30T04:36:53;7.85;;;5.25;;
11139;SDS011;5624;49.388;11.350;2022-08-30T04:39:19;8.13;;;5.33;;
11139;SDS011;5624;49.388;11.350;2022-08-30T04:41:44;7.50;;;4.80;;
11139;SDS011;5624;49.388;11.350;2022-08-30T04:44:10;8.53;;;5.43;;
11139;SDS011;5624;49.388;11.350;2022-08-30T04:46:36;6.80;;;5.33;;
11139;SDS011;5624;49.388;11.350;2022-08-30T04:49:03;7.30;;;5.40;;
11139;SDS011;5624;49.388;11.350;2022-08-30T04:51:29;7.40;;;5.30;;
11139;SDS011;5624;49.388;11.350;2022-08-30T04:53:54;9.30;;;5.20;;
11139;SDS011;5624;49.388;11.350;2022-08-30T04:56:22;7.57;;;5.07;;
11139;SDS011;5624;49.388;11.350;2022-08-30T04:58:49;8.38;;;5.55;;
11139;SDS011;5624;49.388;11.350;2022-08-30T05:01:18;8.00;;;5.30;;
11139;SDS011;5624;49.388;11.350;2022-08-30T05:03:46;8.70;;;5.40;;
11139;SDS011;5624;49.388;11.350;2022-08-30T05:06:12;7.03;;;4.97;;
11139;SDS011;5624;49.388;11.350;2022-08-30T05:08:39;7.32;;;5.97;;
11139;SDS011;5624;49.388;11.350;2022-08-30T05:11:05;7.87;;;5.47;;
11139;SDS011;5624;49.388;11.350;2022-08-30T05:13:32;8.02;;;5.47;;
11139;SDS011;5624;49.388;11.350;2022-08-30T05:15:59;7.63;;;4.78;;
11139;SDS011;5624;49.388;11.350;2022-08-30T05:18:25;9.77;;;4.60;;
11139;SDS011;5624;49.388;11.350;2022-08-30T05:23:34;8.45;;;5.93;;
11139;SDS011;5624;49.388;11.350;2022-08-30T05:26:04;7.50;;;4.72;;
11139;SDS011;5624;49.388;11.350;2022-08-30T05:28:41;7.72;;;5.10;;
11139;SDS011;5624;49.388;11.350;2022-08-30T05:31:17;7.30;;;5.30;;
11139;SDS011;5624;49.388;11.350;2022-08-30T05:33:44;8.30;;;5.18;;
11139;SDS011;5624;49.388;11.350;2022-08-30T05:36:11;8.38;;;5.75;;
11139;SDS011;5624;49.388;11.350;2022-08-30T05:38:38;9.77;;;6.30;;
11139;SDS011;5624;49.388;11.350;2022-08-30T05:41:05;9.00;;;5.95;;
11139;SDS011;5624;49.388;11.350;2022-08-30T05:43:31;8.88;;;5.88;;
11139;SDS011;5624;49.388;11.350;2022-08-30T05:45:57;8.20;;;5.70;;
11139;SDS011;5624;49.388;11.350;2022-08-30T05:48:24;9.55;;;5.65;;
11139;SDS011;5624;49.388;11.350;2022-08-30T05:50:50;10.68;;;7.18;;
11139;SDS011;5624;49.388;11.350;2022-08-30T05:53:24;11.43;;;8.13;;
11139;SDS011;5624;49.388;11.350;2022-08-30T05:55:50;11.10;;;7.57;;
11139;SDS011;5624;49.388;11.350;2022-08-30T05:58:16;13.35;;;8.05;;
11139;SDS011;5624;49.388;11.350;2022-08-30T06:00:43;11.43;;;7.93;;
11139;SDS011;5624;49.388;11.350;2022-08-30T06:03:10;11.82;;;6.55;;
11139;SDS011;5624;49.388;11.350;2022-08-30T06:05:37;9.95;;;6.28;;
11139;SDS011;5624;49.388;11.350;2022-08-30T06:08:03;7.68;;;5.57;;
11139;SDS011;5624;49.388;11.350;2022-08-30T06:10:29;8.52;;;5.22;;
11139;SDS011;5624;49.388;11.350;2022-08-30T06:12:57;6.95;;;4.93;;
11139;SDS011;5624;49.388;11.350;2022-08-30T06:15:23;7.38;;;5.03;;
11139;SDS011;5624;49.388;11.350;2022-08-30T06:17:50;9.75;;;5.82;;
11139;SDS011;5624;49.388;11.350;2022-08-30T06:20:16;9.70;;;4.97;;
11139;SDS011;5624;49.388;11.350;2022-08-30T06:22:45;8.10;;;5.32;;
11139;SDS011;5624;49.388;11.350;2022-08-30T06:25:10;9.00;;;5.57;;
11139;SDS011;5624;49.388;11.350;2022-08-30T06:27:37;7.68;;;5.10;;
11139;SDS011;5624;49.388;11.350;2022-08-30T06:30:03;10.68;;;5.60;;
11139;SDS011;5624;49.388;11.350;2022-08-30T06:32:32;11.68;;;6.53;;
11139;SDS011;5624;49.388;11.350;2022-08-30T06:34:58;7.80;;;5.82;;
11139;SDS011;5624;49.388;11.350;2022-08-30T06:37:24;10.13;;;6.25;;
11139;SDS011;5624;49.388;11.350;2022-08-30T06:39:51;8.15;;;5.40;;
11139;SDS011;5624;49.388;11.350;2022-08-30T06:42:17;7.93;;;5.35;;
11139;SDS011;5624;49.388;11.350;2022-08-30T06:44:43;9.18;;;6.18;;
11139;SDS011;5624;49.388;11.350;2022-08-30T06:47:09;8.88;;;5.22;;
11139;SDS011;5624;49.388;11.350;2022-08-30T06:49:36;7.90;;;5.13;;
11139;SDS011;5624;49.388;11.350;2022-08-30T06:52:02;9.77;;;5.90;;
11139;SDS011;5624;49.388;11.350;2022-08-30T06:54:29;8.60;;;6.00;;
11139;SDS011;5624;49.388;11.350;2022-08-30T06:56:54;11.90;;;5.68;;
11139;SDS011;5624;49.388;11.350;2022-08-30T06:59:20;8.90;;;5.30;;
11139;SDS011;5624;49.388;11.350;2022-08-30T07:01:47;10.20;;;5.32;;
11139;SDS011;5624;49.388;11.350;2022-08-30T07:04:14;10.07;;;5.97;;
11139;SDS011;5624;49.388;11.350;2022-08-30T07:06:40;7.80;;;5.45;;
11139;SDS011;5624;49.388;11.350;2022-08-30T07:09:06;8.65;;;5.18;;
11139;SDS011;5624;49.388;11.350;2022-08-30T07:11:33;7.18;;;5.05;;
11139;SDS011;5624;49.388;11.350;2022-08-30T07:14:02;8.13;;;5.18;;
11139;SDS011;5624;49.388;11.350;2022-08-30T07:16:28;8.45;;;5.68;;
11139;SDS011;5624;49.388;11.350;2022-08-30T07:18:54;7.10;;;4.70;;
11139;SDS011;5624;49.388;11.350;2022-08-30T07:23:54;9.38;;;5.75;;
11139;SDS011;5624;49.388;11.350;2022-08-30T07:26:26;6.95;;;4.43;;
11139;SDS011;5624;49.388;11.350;2022-08-30T07:28:56;11.07;;;6.20;;
11139;SDS011;5624;49.388;11.350;2022-08-30T07:31:22;7.28;;;5.15;;
11139;SDS011;5624;49.388;11.350;2022-08-30T07:33:49;8.10;;;5.47;;
11139;SDS011;5624;49.388;11.350;2022-08-30T07:36:18;7.00;;;5.38;;
11139;SDS011;5624;49.388;11.350;2022-08-30T07:38:46;9.43;;;5.70;;
11139;SDS011;5624;49.388;11.350;2022-08-30T07:41:19;8.43;;;5.20;;
11139;SDS011;5624;49.388;11.350;2022-08-30T07:43:53;7.43;;;5.25;;
11139;SDS011;5624;49.388;11.350;2022-08-30T07:46:19;8.27;;;5.28;;
11139;SDS011;5624;49.388;11.350;2022-08-30T07:48:46;8.35;;;4.90;;
11139;SDS011;5624;49.388;11.350;2022-08-30T07:51:13;9.20;;;5.20;;
11139;SDS011;5624;49.388;11.350;2022-08-30T07:53:42;6.90;;;4.53;;
11139;SDS011;5624;49.388;11.350;2022-08-30T07:56:08;5.82;;;4.38;;
11139;SDS011;5624;49.388;11.350;2022-08-30T07:58:34;6.93;;;4.82;;
11139;SDS011;5624;49.388;11.350;2022-08-30T08:01:01;10.20;;;5.72;;
11139;SDS011;5624;49.388;11.350;2022-08-30T08:03:28;6.60;;;5.05;;
11139;SDS011;5624;49.388;11.350;2022-08-30T08:05:55;6.75;;;5.20;;
11139;SDS011;5624;49.388;11.350;2022-08-30T08:08:22;4.93;;;4.15;;
11139;SDS011;5624;49.388;11.350;2022-08-30T08:10:49;6.72;;;4.95;;
11139;SDS011;5624;49.388;11.350;2022-08-30T08:13:16;6.38;;;4.35;;
11139;SDS011;5624;49.388;11.350;2022-08-30T08:15:43;6.63;;;4.65;;
11139;SDS011;5624;49.388;11.350;2022-08-30T08:18:10;6.80;;;4.35;;
11139;SDS011;5624;49.388;11.350;2022-08-30T08:20:37;5.65;;;4.03;;
11139;SDS011;5624;49.388;11.350;2022-08-30T08:23:04;5.78;;;4.10;;
11139;SDS011;5624;49.388;11.350;2022-08-30T08:25:30;7.70;;;4.50;;
11139;SDS011;5624;49.388;11.350;2022-08-30T08:27:56;6.30;;;4.65;;
11139;SDS011;5624;49.388;11.350;2022-08-30T08:30:23;7.97;;;4.50;;
11139;SDS011;5624;49.388;11.350;2022-08-30T08:32:49;7.15;;;4.60;;
11139;SDS011;5624;49.388;11.350;2022-08-30T08:35:15;7.68;;;4.70;;
11139;SDS011;5624;49.388;11.350;2022-08-30T08:37:42;5.40;;;4.32;;
11139;SDS011;5624;49.388;11.350;2022-08-30T08:40:12;5.90;;;4.28;;
11139;SDS011;5624;49.388;11.350;2022-08-30T08:51:03;6.90;;;4.07;;
11139;SDS011;5624;49.388;11.350;2022-08-30T08:54:35;6.72;;;4.05;;
11139;SDS011;5624;49.388;11.350;2022-08-30T08:57:04;5.63;;;3.33;;
11139;SDS011;5624;49.388;11.350;2022-08-30T08:59:30;6.13;;;4.00;;
11139;SDS011;5624;49.388;11.350;2022-08-30T09:01:57;5.78;;;3.67;;
11139;SDS011;5624;49.388;11.350;2022-08-30T09:04:29;5.07;;;3.67;;
11139;SDS011;5624;49.388;11.350;2022-08-30T09:07:01;8.18;;;4.00;;
11139;SDS011;5624;49.388;11.350;2022-08-30T09:09:33;6.88;;;3.67;;
11139;SDS011;5624;49.388;11.350;2022-08-30T09:12:05;6.78;;;2.88;;
11139;SDS011;5624;49.388;11.350;2022-08-30T09:14:34;4.32;;;3.08;;
11139;SDS011;5624;49.388;11.350;2022-08-30T09:17:07;5.47;;;3.22;;
11139;SDS011;5624;49.388;11.350;2022-08-30T09:19:42;5.70;;;3.40;;
11139;SDS011;5624;49.388;11.350;2022-08-30T09:22:20;6.55;;;3.33;;
11139;SDS011;5624;49.388;11.350;2022-08-30T09:27:33;6.65;;;3.20;;
11139;SDS011;5624;49.388;11.350;2022-08-30T09:32:59;4.40;;;2.90;;
11139;SDS011;5624;49.388;11.350;2022-08-30T09:35:43;5.32;;;3.13;;
11139;SDS011;5624;49.388;11.350;2022-08-30T09:38:32;4.45;;;3.45;;
11139;SDS011;5624;49.388;11.350;2022-08-30T09:40:59;4.32;;;3.45;;
11139;SDS011;5624;49.388;11.350;2022-08-30T09:43:46;6.03;;;3.53;;
11139;SDS011;5624;49.388;11.350;2022-08-30T09:46:41;5.18;;;3.42;;
11139;SDS011;5624;49.388;11.350;2022-08-30T09:49:26;4.70;;;3.58;;
11139;SDS011;5624;49.388;11.350;2022-08-30T09:57:54;4.65;;;3.30;;
11139;SDS011;5624;49.388;11.350;2022-08-30T10:00:29;4.85;;;3.55;;
11139;SDS011;5624;49.388;11.350;2022-08-30T10:08:36;4.57;;;3.17;;
11139;SDS011;5624;49.388;11.350;2022-08-30T10:12:09;4.65;;;2.90;;
11139;SDS011;5624;49.388;11.350;2022-08-30T10:17:18;5.10;;;3.05;;
11139;SDS011;5624;49.388;11.350;2022-08-30T10:22:34;5.72;;;3.17;;
11139;SDS011;5624;49.388;11.350;2022-08-30T10:25:18;7.78;;;3.22;;
11139;SDS011;5624;49.388;11.350;2022-08-30T10:30:20;4.53;;;2.78;;
11139;SDS011;5624;49.388;11.350;2022-08-30T10:33:00;6.68;;;3.15;;
11139;SDS011;5624;49.388;11.350;2022-08-30T10:35:33;4.85;;;2.60;;
11139;SDS011;5624;49.388;11.350;2022-08-30T10:49:40;5.20;;;2.60;;
11139;SDS011;5624;49.388;11.350;2022-08-30T10:57:27;5.07;;;2.22;;
11139;SDS011;5624;49.388;11.350;2022-08-30T10:59:54;3.80;;;2.05;;
11139;SDS011;5624;49.388;11.350;2022-08-30T11:05:20;4.63;;;2.63;;
11139;SDS011;5624;49.388;11.350;2022-08-30T11:08:25;3.88;;;2.25;;
11139;SDS011;5624;49.388;11.350;2022-08-30T11:11:04;3.65;;;2.28;;
11139;SDS011;5624;49.388;11.350;2022-08-30T11:13:53;3.88;;;2.50;;
11139;SDS011;5624;49.388;11.350;2022-08-30T11:16:19;5.72;;;2.25;;
11139;SDS011;5624;49.388;11.350;2022-08-30T11:19:13;4.43;;;2.08;;
11139;SDS011;5624;49.388;11.350;2022-08-30T11:21:50;5.15;;;2.10;;
11139;SDS011;5624;49.388;11.350;2022-08-30T11:24:32;2.67;;;2.08;;
11139;SDS011;5624;49.388;11.350;2022-08-30T11:35:40;2.22;;;1.92;;
11139;SDS011;5624;49.388;11.350;2022-08-30T11:40:45;4.18;;;2.00;;
11139;SDS011;5624;49.388;11.350;2022-08-30T11:46:18;4.03;;;2.53;;
11139;SDS011;5624;49.388;11.350;2022-08-30T11:48:51;2.92;;;2.22;;
11139;SDS011;5624;49.388;11.350;2022-08-30T11:51:29;2.75;;;2.03;;
11139;SDS011;5624;49.388;11.350;2022-08-30T12:08:02;3.95;;;2.60;;
11139;SDS011;5624;49.388;11.350;2022-08-30T12:13:06;3.38;;;2.00;;
11139;SDS011;5624;49.388;11.350;2022-08-30T12:18:45;4.00;;;2.20;;
11139;SDS011;5624;49.388;11.350;2022-08-30T12:26:43;3.58;;;2.28;;
11139;SDS011;5624;49.388;11.350;2022-08-30T12:29:16;2.95;;;2.33;;
11139;SDS011;5624;49.388;11.350;2022-08-30T12:32:02;3.13;;;2.40;;
11139;SDS011;5624;49.388;11.350;2022-08-30T12:37:27;4.10;;;2.42;;
11139;SDS011;5624;49.388;11.350;2022-08-30T12:42:29;3.47;;;2.42;;
11139;SDS011;5624;49.388;11.350;2022-08-30T12:44:58;3.78;;;2.40;;
11139;SDS011;5624;49.388;11.350;2022-08-30T12:47:30;4.13;;;2.53;;
11139;SDS011;5624;49.388;11.350;2022-08-30T12:50:05;6.85;;;3.45;;
11139;SDS011;5624;49.388;11.350;2022-08-30T12:52:34;4.35;;;2.90;;
11139;SDS011;5624;49.388;11.350;2022-08-30T12:57:40;6.65;;;3.00;;
11139;SDS011;5624;49.388;11.350;2022-08-30T13:00:22;3.42;;;2.65;;
11139;SDS011;5624;49.388;11.350;2022-08-30T13:02:51;3.78;;;2.80;;
11139;SDS011;5624;49.388;11.350;2022-08-30T13:05:29;4.10;;;2.83;;
11139;SDS011;5624;49.388;11.350;2022-08-30T13:10:35;3.58;;;2.50;;
11139;SDS011;5624;49.388;11.350;2022-08-30T13:13:02;5.90;;;2.80;;
11139;SDS011;5624;49.388;11.350;2022-08-30T13:15:31;5.20;;;2.63;;
11139;SDS011;5624;49.388;11.350;2022-08-30T13:18:11;4.05;;;2.80;;
11139;SDS011;5624;49.388;11.350;2022-08-30T13:20:49;4.78;;;3.13;;
11139;SDS011;5624;49.388;11.350;2022-08-30T13:23:22;4.57;;;2.63;;
11139;SDS011;5624;49.388;11.350;2022-08-30T13:25:48;4.43;;;2.40;;
11139;SDS011;5624;49.388;11.350;2022-08-30T13:28:15;3.58;;;2.75;;
11139;SDS011;5624;49.388;11.350;2022-08-30T13:30:42;5.70;;;2.90;;
11139;SDS011;5624;49.388;11.350;2022-08-30T13:33:08;5.38;;;2.95;;
11139;SDS011;5624;49.388;11.350;2022-08-30T13:35:36;4.18;;;2.80;;
11139;SDS011;5624;49.388;11.350;2022-08-30T13:38:03;4.97;;;3.45;;
11139;SDS011;5624;49.388;11.350;2022-08-30T13:40:29;5.75;;;2.95;;
11139;SDS011;5624;49.388;11.350;2022-08-30T13:42:55;4.50;;;2.70;;
11139;SDS011;5624;49.388;11.350;2022-08-30T13:45:21;3.72;;;2.63;;
11139;SDS011;5624;49.388;11.350;2022-08-30T13:47:47;5.28;;;2.83;;
11139;SDS011;5624;49.388;11.350;2022-08-30T13:50:14;5.45;;;2.78;;
11139;SDS011;5624;49.388;11.350;2022-08-30T13:52:41;3.72;;;2.50;;
11139;SDS011;5624;49.388;11.350;2022-08-30T13:55:09;5.35;;;3.33;;
11139;SDS011;5624;49.388;11.350;2022-08-30T13:57:36;3.75;;;2.30;;
11139;SDS011;5624;49.388;11.350;2022-08-30T14:00:04;5.95;;;2.78;;
11139;SDS011;5624;49.388;11.350;2022-08-30T14:02:34;4.57;;;2.60;;
11139;SDS011;5624;49.388;11.350;2022-08-30T14:05:01;4.55;;;2.80;;
11139;SDS011;5624;49.388;11.350;2022-08-30T14:07:30;6.20;;;3.10;;
11139;SDS011;5624;49.388;11.350;2022-08-30T14:09:56;3.25;;;2.53;;
11139;SDS011;5624;49.388;11.350;2022-08-30T14:12:24;2.95;;;2.55;;
11139;SDS011;5624;49.388;11.350;2022-08-30T14:14:51;6.60;;;2.85;;
11139;SDS011;5624;49.388;11.350;2022-08-30T14:17:17;6.50;;;3.30;;
11139;SDS011;5624;49.388;11.350;2022-08-30T14:19:43;4.65;;;2.78;;
11139;SDS011;5624;49.388;11.350;2022-08-30T14:22:09;5.53;;;2.65;;
11139;SDS011;5624;49.388;11.350;2022-08-30T14:24:36;4.63;;;2.83;;
11139;SDS011;5624;49.388;11.350;2022-08-30T14:27:03;3.78;;;2.80;;
11139;SDS011;5624;49.388;11.350;2022-08-30T14:29:29;6.50;;;3.00;;
11139;SDS011;5624;49.388;11.350;2022-08-30T14:31:57;3.53;;;2.25;;
11139;SDS011;5624;49.388;11.350;2022-08-30T14:34:25;4.25;;;2.60;;
11139;SDS011;5624;49.388;11.350;2022-08-30T14:36:52;3.67;;;2.60;;
11139;SDS011;5624;49.388;11.350;2022-08-30T14:39:21;2.95;;;2.60;;
11139;SDS011;5624;49.388;11.350;2022-08-30T14:41:49;4.22;;;3.08;;
11139;SDS011;5624;49.388;11.350;2022-08-30T14:44:21;3.50;;;2.25;;
11139;SDS011;5624;49.388;11.350;2022-08-30T14:46:49;3.03;;;2.17;;
11139;SDS011;5624;49.388;11.350;2022-08-30T14:49:17;3.95;;;2.03;;
11139;SDS011;5624;49.388;11.350;2022-08-30T14:51:47;6.75;;;2.40;;
11139;SDS011;5624;49.388;11.350;2022-08-30T14:54:15;6.07;;;2.58;;
11139;SDS011;5624;49.388;11.350;2022-08-30T14:56:42;3.25;;;2.42;;
11139;SDS011;5624;49.388;11.350;2022-08-30T14:59:10;3.70;;;2.45;;
11139;SDS011;5624;49.388;11.350;2022-08-30T15:01:39;3.70;;;2.40;;
11139;SDS011;5624;49.388;11.350;2022-08-30T15:04:07;3.17;;;2.30;;
11139;SDS011;5624;49.388;11.350;2022-08-30T15:06:35;4.38;;;2.28;;
11139;SDS011;5624;49.388;11.350;2022-08-30T15:09:03;4.30;;;2.42;;
11139;SDS011;5624;49.388;11.350;2022-08-30T15:11:31;3.25;;;2.38;;
11139;SDS011;5624;49.388;11.350;2022-08-30T15:13:57;4.25;;;2.35;;
11139;SDS011;5624;49.388;11.350;2022-08-30T15:16:25;6.90;;;2.60;;
11139;SDS011;5624;49.388;11.350;2022-08-30T15:18:52;3.40;;;2.50;;
11139;SDS011;5624;49.388;11.350;2022-08-30T15:21:39;3.42;;;2.35;;
11139;SDS011;5624;49.388;11.350;2022-08-30T15:24:07;4.53;;;2.75;;
11139;SDS011;5624;49.388;11.350;2022-08-30T15:26:35;5.07;;;2.70;;
11139;SDS011;5624;49.388;11.350;2022-08-30T15:29:05;4.20;;;2.67;;
11139;SDS011;5624;49.388;11.350;2022-08-30T15:31:32;5.05;;;2.50;;
11139;SDS011;5624;49.388;11.350;2022-08-30T15:33:59;5.25;;;2.67;;
11139;SDS011;5624;49.388;11.350;2022-08-30T15:36:25;3.67;;;2.80;;
11139;SDS011;5624;49.388;11.350;2022-08-30T15:38:52;4.32;;;2.92;;
11139;SDS011;5624;49.388;11.350;2022-08-30T15:41:23;4.88;;;2.78;;
11139;SDS011;5624;49.388;11.350;2022-08-30T15:43:50;6.25;;;3.10;;
11139;SDS011;5624;49.388;11.350;2022-08-30T15:46:27;4.20;;;3.08;;
11139;SDS011;5624;49.388;11.350;2022-08-30T15:48:59;6.40;;;3.03;;
11139;SDS011;5624;49.388;11.350;2022-08-30T15:51:30;4.60;;;2.55;;
11139;SDS011;5624;49.388;11.350;2022-08-30T15:53:57;6.50;;;2.80;;
11139;SDS011;5624;49.388;11.350;2022-08-30T15:56:23;5.13;;;2.70;;
11139;SDS011;5624;49.388;11.350;2022-08-30T15:58:49;4.82;;;2.95;;
11139;SDS011;5624;49.388;11.350;2022-08-30T16:01:16;6.63;;;2.70;;
11139;SDS011;5624;49.388;11.350;2022-08-30T16:03:42;4.15;;;2.38;;
11139;SDS011;5624;49.388;11.350;2022-08-30T16:06:10;3.28;;;2.47;;
11139;SDS011;5624;49.388;11.350;2022-08-30T16:08:37;5.47;;;2.78;;
11139;SDS011;5624;49.388;11.350;2022-08-30T16:11:04;3.30;;;2.60;;
11139;SDS011;5624;49.388;11.350;2022-08-30T16:13:31;4.45;;;2.72;;
11139;SDS011;5624;49.388;11.350;2022-08-30T16:16:01;5.65;;;3.03;;
11139;SDS011;5624;49.388;11.350;2022-08-30T16:18:29;3.58;;;2.78;;
11139;SDS011;5624;49.388;11.350;2022-08-30T16:21:03;5.40;;;2.97;;
11139;SDS011;5624;49.388;11.350;2022-08-30T16:23:36;4.82;;;3.00;;
11139;SDS011;5624;49.388;11.350;2022-08-30T16:26:03;3.70;;;2.80;;
11139;SDS011;5624;49.388;11.350;2022-08-30T16:28:30;5.38;;;2.88;;
11139;SDS011;5624;49.388;11.350;2022-08-30T16:30:56;5.97;;;2.88;;
11139;SDS011;5624;49.388;11.350;2022-08-30T16:33:22;4.53;;;2.95;;
11139;SDS011;5624;49.388;11.350;2022-08-30T16:35:49;4.35;;;2.80;;
11139;SDS011;5624;49.388;11.350;2022-08-30T16:38:19;6.78;;;3.05;;
11139;SDS011;5624;49.388;11.350;2022-08-30T16:40:45;4.75;;;3.00;;
11139;SDS011;5624;49.388;11.350;2022-08-30T16:43:12;5.07;;;2.88;;
11139;SDS011;5624;49.388;11.350;2022-08-30T16:45:38;4.18;;;2.72;;